Port Dufferin, Canada
Current Conditions -  °F | °C
As of 11:00 AM on Thursday 30 Oct 2014 (Local Time) from CYHZ Reporting Station
Broken Clouds Broken Clouds  
Wind Chill: 11°   Ceiling: 3000
Heat Index: 11°   Visibility: 15mi
Dew Point:   Wind: 14mph
Humidity: 76%   Direction: 310°NW
Pressure: 29.79"   Gusts: NA
Location:  44.92°N, 62.38°W
Report Text: CYHZ 301400Z 31012KT 15SM FEW015 BKN030 BKN090 11/07 A2979 RMK SC1SC4AC2 SLP090
Loading
Personal Weather Stations






























Interactive Weather Map
Tropical Storm Tracking
New forecast layout! Learn more

10-Day Weather Forecast

Advertisements
Track Severe Weather on mobile